Private Wetterstation Sandau
Wetterdaten: Sonntag, 21.10.2012
Datum Zeit Temp. A. Feuchte A. Luftdruck Regen Wind Richtung Richtung Taupunkt Windchill
21.10.2012 00:01 12,1 C 89 % 1019,2 hPa 0,0 l/m 0,0 km/h (0 Bft) N-NW 337 10,3 C 12,1 C
21.10.2012 00:06 11,9 C 89 % 1019,3 hPa 0,0 l/m 0,0 km/h (0 Bft) N-NW 337 10,1 C 11,9 C
21.10.2012 00:11 11,9 C 89 % 1019,3 hPa 0,0 l/m 0,0 km/h (0 Bft) N-NW 337 10,1 C 11,9 C
21.10.2012 00:16 11,9 C 89 % 1019,4 hPa 0,0 l/m 0,0 km/h (0 Bft) N-NW 337 10,1 C 11,9 C
21.10.2012 00:21 11,9 C 89 % 1019,2 hPa 0,0 l/m 0,0 km/h (0 Bft) N-NW 337 10,1 C 11,9 C
21.10.2012 00:26 11,9 C 89 % 1019,2 hPa 0,0 l/m 0,0 km/h (0 Bft) N-NW 337 10,1 C 11,9 C
21.10.2012 00:31 11,9 C 89 % 1019,2 hPa 0,0 l/m 0,0 km/h (0 Bft) N-NW 337 10,1 C 11,9 C
21.10.2012 00:36 11,9 C 89 % 1019,3 hPa 0,0 l/m 0,0 km/h (0 Bft) N-NW 337 10,1 C 11,9 C
21.10.2012 00:41 11,8 C 89 % 1019,4 hPa 0,0 l/m 0,0 km/h (0 Bft) N-NW 337 10,0 C 11,8 C
21.10.2012 00:46 11,7 C 89 % 1019,4 hPa 0,0 l/m 0,0 km/h (0 Bft) N-NW 337 9,9 C 11,7 C
21.10.2012 00:51 11,6 C 90 % 1019,3 hPa 0,0 l/m 0,0 km/h (0 Bft) N-NW 337 10,0 C 11,6 C
21.10.2012 00:56 11,6 C 90 % 1019,4 hPa 0,0 l/m 0,0 km/h (0 Bft) N-NW 337 10,0 C 11,6 C
21.10.2012 01:01 11,5 C 90 % 1019,4 hPa 0,0 l/m 0,0 km/h (0 Bft) N-NW 337 9,9 C 11,5 C
21.10.2012 01:06 11,5 C 90 % 1019,4 hPa 0,0 l/m 0,0 km/h (0 Bft) N-NW 337 9,9 C 11,5 C
21.10.2012 01:11 11,5 C 90 % 1019,5 hPa 0,0 l/m 0,0 km/h (0 Bft) N-NW 337 9,9 C 11,5 C
21.10.2012 01:16 11,4 C 90 % 1019,4 hPa 0,0 l/m 0,0 km/h (0 Bft) N-NW 337 9,8 C 11,4 C
21.10.2012 01:21 11,4 C 90 % 1019,4 hPa 0,0 l/m 0,0 km/h (0 Bft) N-NW 337 9,8 C 11,4 C
21.10.2012 01:26 11,3 C 90 % 1019,4 hPa 0,0 l/m 0,0 km/h (0 Bft) N-NW 337 9,7 C 11,3 C
21.10.2012 01:31 11,3 C 90 % 1019,4 hPa 0,0 l/m 0,0 km/h (0 Bft) N-NW 337 9,7 C 11,3 C
21.10.2012 01:36 11,3 C 90 % 1019,5 hPa 0,0 l/m 0,0 km/h (0 Bft) N-NW 337 9,7 C 11,3 C
21.10.2012 01:41 11,3 C 90 % 1019,4 hPa 0,0 l/m 0,0 km/h (0 Bft) N-NW 337 9,7 C 11,3 C
21.10.2012 01:46 11,3 C 90 % 1019,4 hPa 0,0 l/m 0,0 km/h (0 Bft) N-NW 337 9,7 C 11,3 C
21.10.2012 01:51 11,3 C 90 % 1019,5 hPa 0,0 l/m 0,0 km/h (0 Bft) N-NW 337 9,7 C 11,3 C
21.10.2012 01:56 11,3 C 90 % 1019,4 hPa 0,0 l/m 2,9 km/h (1 Bft) O-SO 112 9,7 C 11,3 C
21.10.2012 02:01 11,3 C 91 % 1019,6 hPa 0,0 l/m 2,9 km/h (1 Bft) SO 135 9,9 C 11,3 C
21.10.2012 02:06 11,3 C 91 % 1019,7 hPa 0,0 l/m 0,0 km/h (0 Bft) O-SO 112 9,9 C 11,3 C
21.10.2012 02:11 11,3 C 91 % 1019,7 hPa 0,0 l/m 0,0 km/h (0 Bft) O-SO 112 9,9 C 11,3 C
21.10.2012 02:16 11,3 C 91 % 1019,6 hPa 0,0 l/m 0,0 km/h (0 Bft) O-SO 112 9,9 C 11,3 C
21.10.2012 02:21 11,3 C 91 % 1019,7 hPa 0,0 l/m 1,8 km/h (1 Bft) O-SO 112 9,9 C 11,3 C
21.10.2012 02:26 11,3 C 91 % 1019,7 hPa 0,0 l/m 0,0 km/h (0 Bft) O-SO 112 9,9 C 11,3 C
21.10.2012 02:31 11,2 C 91 % 1019,7 hPa 0,0 l/m 0,0 km/h (0 Bft) O-SO 112 9,8 C 11,2 C
21.10.2012 02:36 11,1 C 91 % 1019,8 hPa 0,0 l/m 0,0 km/h (0 Bft) O-SO 112 9,7 C 11,1 C
21.10.2012 02:41 11,1 C 91 % 1019,9 hPa 0,0 l/m 0,0 km/h (0 Bft) N 360 9,7 C 11,1 C
21.10.2012 02:46 11,0 C 91 % 1020,0 hPa 0,0 l/m 0,0 km/h (0 Bft) N 360 9,6 C 11,0 C
21.10.2012 02:51 10,9 C 91 % 1020,0 hPa 0,0 l/m 0,0 km/h (0 Bft) N 360 9,5 C 10,9 C
21.10.2012 02:56 10,9 C 91 % 1019,9 hPa 0,0 l/m 0,0 km/h (0 Bft) N 360 9,5 C 10,9 C
21.10.2012 03:01 10,9 C 91 % 1020,0 hPa 0,0 l/m 0,0 km/h (0 Bft) N 360 9,5 C 10,9 C
21.10.2012 03:06 10,9 C 91 % 1020,0 hPa 0,0 l/m 0,0 km/h (0 Bft) N 360 9,5 C 10,9 C
21.10.2012 03:11 10,8 C 91 % 1019,9 hPa 0,0 l/m 0,0 km/h (0 Bft) N 360 9,4 C 10,8 C
21.10.2012 03:16 10,8 C 91 % 1019,9 hPa 0,0 l/m 0,0 km/h (0 Bft) N 360 9,4 C 10,8 C
21.10.2012 03:21 10,6 C 91 % 1019,7 hPa 0,0 l/m 0,0 km/h (0 Bft) N 360 9,2 C 10,6 C
21.10.2012 03:26 10,6 C 91 % 1019,7 hPa 0,0 l/m 0,0 km/h (0 Bft) N 360 9,2 C 10,6 C
21.10.2012 03:31 10,5 C 91 % 1019,7 hPa 0,0 l/m 0,0 km/h (0 Bft) N 360 9,1 C 10,5 C
21.10.2012 03:36 10,6 C 91 % 1019,7 hPa 0,0 l/m 4,0 km/h (1 Bft) NO 45 9,2 C 10,6 C
21.10.2012 03:41 11,3 C 92 % 1019,7 hPa 0,0 l/m 2,9 km/h (1 Bft) O-NO 67 10,0 C 11,3 C
21.10.2012 03:46 11,8 C 92 % 1019,7 hPa 0,0 l/m 6,1 km/h (2 Bft) O-NO 67 10,5 C 11,8 C
21.10.2012 03:51 12,2 C 92 % 1019,8 hPa 0,0 l/m 5,4 km/h (1 Bft) NO 45 10,9 C 12,2 C
21.10.2012 03:56 12,4 C 93 % 1019,7 hPa 0,0 l/m 2,5 km/h (1 Bft) O 90 11,3 C 12,4 C
21.10.2012 04:01 12,4 C 93 % 1019,9 hPa 0,0 l/m 1,4 km/h (1 Bft) O 90 11,3 C 12,4 C
21.10.2012 04:06 12,4 C 93 % 1019,8 hPa 0,0 l/m 3,2 km/h (1 Bft) O-SO 112 11,3 C 12,4 C
21.10.2012 04:11 12,3 C 93 % 1019,8 hPa 0,0 l/m 3,2 km/h (1 Bft) O-SO 112 11,2 C 12,3 C
21.10.2012 04:16 12,1 C 93 % 1019,8 hPa 0,0 l/m 0,0 km/h (0 Bft) SO 135 11,0 C 12,1 C
21.10.2012 04:21 12,1 C 93 % 1019,9 hPa 0,0 l/m 2,2 km/h (1 Bft) O-SO 112 11,0 C 12,1 C
21.10.2012 04:26 12,0 C 93 % 1019,8 hPa 0,0 l/m 2,2 km/h (1 Bft) O-SO 112 10,9 C 12,0 C
21.10.2012 04:31 11,9 C 93 % 1019,7 hPa 0,0 l/m 0,0 km/h (0 Bft) O-SO 112 10,8 C 11,9 C
21.10.2012 04:36 11,9 C 93 % 1019,8 hPa 0,0 l/m 2,5 km/h (1 Bft) O-SO 112 10,8 C 11,9 C
21.10.2012 04:41 11,8 C 93 % 1019,7 hPa 0,0 l/m 0,0 km/h (0 Bft) O-SO 112 10,7 C 11,8 C
21.10.2012 04:46 11,8 C 93 % 1019,8 hPa 0,0 l/m 2,5 km/h (1 Bft) O-SO 112 10,7 C 11,8 C
21.10.2012 04:51 11,8 C 93 % 1019,7 hPa 0,0 l/m 2,2 km/h (1 Bft) O-SO 112 10,7 C 11,8 C
21.10.2012 04:56 11,8 C 93 % 1019,8 hPa 0,0 l/m 0,0 km/h (0 Bft) O-SO 112 10,7 C 11,8 C
21.10.2012 05:01 11,8 C 93 % 1019,8 hPa 0,0 l/m 1,8 km/h (1 Bft) O 90 10,7 C 11,8 C
21.10.2012 05:06 11,8 C 93 % 1019,9 hPa 0,0 l/m 3,2 km/h (1 Bft) O 90 10,7 C 11,8 C
21.10.2012 05:11 11,9 C 93 % 1019,8 hPa 0,0 l/m 0,0 km/h (0 Bft) O-SO 112 10,8 C 11,9 C
21.10.2012 05:16 11,9 C 93 % 1019,9 hPa 0,0 l/m 2,2 km/h (1 Bft) NO 45 10,8 C 11,9 C
21.10.2012 05:21 11,9 C 93 % 1019,8 hPa 0,0 l/m 6,1 km/h (2 Bft) O-NO 67 10,8 C 11,9 C
21.10.2012 05:26 12,1 C 93 % 1019,8 hPa 0,0 l/m 2,5 km/h (1 Bft) O-SO 112 11,0 C 12,1 C
21.10.2012 05:31 12,0 C 93 % 1019,8 hPa 0,0 l/m 5,8 km/h (2 Bft) O-SO 112 10,9 C 12,0 C
21.10.2012 05:36 12,0 C 93 % 1019,7 hPa 0,0 l/m 2,5 km/h (1 Bft) SO 135 10,9 C 12,0 C
21.10.2012 05:41 11,9 C 93 % 1019,7 hPa 0,0 l/m 2,5 km/h (1 Bft) O-SO 112 10,8 C 11,9 C
21.10.2012 05:46 11,9 C 93 % 1019,7 hPa 0,0 l/m 0,0 km/h (0 Bft) SO 135 10,8 C 11,9 C
21.10.2012 05:51 11,9 C 93 % 1019,6 hPa 0,0 l/m 0,0 km/h (0 Bft) SO 135 10,8 C 11,9 C
21.10.2012 05:56 11,8 C 93 % 1019,6 hPa 0,0 l/m 4,0 km/h (1 Bft) O-SO 112 10,7 C 11,8 C
21.10.2012 06:01 11,8 C 93 % 1019,5 hPa 0,0 l/m 0,0 km/h (0 Bft) O-SO 112 10,7 C 11,8 C
21.10.2012 06:06 11,8 C 93 % 1019,5 hPa 0,0 l/m 3,2 km/h (1 Bft) O 90 10,7 C 11,8 C
21.10.2012 06:11 11,8 C 93 % 1019,4 hPa 0,0 l/m 2,5 km/h (1 Bft) O 90 10,7 C 11,8 C
21.10.2012 06:16 11,8 C 93 % 1019,4 hPa 0,0 l/m 3,6 km/h (1 Bft) O-SO 112 10,7 C 11,8 C
21.10.2012 06:21 11,8 C 93 % 1019,4 hPa 0,0 l/m 4,0 km/h (1 Bft) O-SO 112 10,7 C 11,8 C
21.10.2012 06:26 11,8 C 94 % 1019,5 hPa 0,0 l/m 2,5 km/h (1 Bft) O-SO 112 10,9 C 11,8 C
21.10.2012 06:31 11,8 C 94 % 1019,5 hPa 0,0 l/m 2,2 km/h (1 Bft) O-SO 112 10,9 C 11,8 C
21.10.2012 06:36 11,7 C 94 % 1019,5 hPa 0,0 l/m 3,2 km/h (1 Bft) O-SO 112 10,8 C 11,7 C
21.10.2012 06:41 11,6 C 94 % 1019,4 hPa 0,0 l/m 3,6 km/h (1 Bft) O-NO 67 10,7 C 11,6 C
21.10.2012 06:46 11,6 C 94 % 1019,5 hPa 0,0 l/m 1,8 km/h (1 Bft) O-SO 112 10,7 C 11,6 C
21.10.2012 06:51 11,6 C 94 % 1019,6 hPa 0,0 l/m 3,6 km/h (1 Bft) O-NO 67 10,7 C 11,6 C
21.10.2012 06:56 11,6 C 94 % 1019,4 hPa 0,0 l/m 4,0 km/h (1 Bft) O-NO 67 10,7 C 11,6 C
21.10.2012 07:01 11,6 C 94 % 1019,5 hPa 0,0 l/m 5,8 km/h (2 Bft) O-SO 112 10,7 C 11,6 C
21.10.2012 07:06 11,6 C 94 % 1019,5 hPa 0,0 l/m 1,4 km/h (1 Bft) O-SO 112 10,7 C 11,6 C
21.10.2012 07:11 11,6 C 94 % 1019,4 hPa 0,0 l/m 3,2 km/h (1 Bft) O-SO 112 10,7 C 11,6 C
21.10.2012 07:16 11,6 C 94 % 1019,6 hPa 0,0 l/m 0,0 km/h (0 Bft) O-SO 112 10,7 C 11,6 C
21.10.2012 07:21 11,5 C 94 % 1019,6 hPa 0,0 l/m 2,5 km/h (1 Bft) O-SO 112 10,6 C 11,5 C
21.10.2012 07:26 11,4 C 94 % 1019,5 hPa 0,0 l/m 0,0 km/h (0 Bft) O-SO 112 10,5 C 11,4 C
21.10.2012 07:31 11,3 C 94 % 1019,6 hPa 0,0 l/m 0,0 km/h (0 Bft) SO 135 10,4 C 11,3 C
21.10.2012 07:36 11,2 C 93 % 1019,7 hPa 0,0 l/m 0,0 km/h (0 Bft) SO 135 10,1 C 11,2 C
21.10.2012 07:41 11,1 C 93 % 1019,7 hPa 0,0 l/m 1,8 km/h (1 Bft) O-SO 112 10,0 C 11,1 C
21.10.2012 07:46 10,9 C 93 % 1019,8 hPa 0,0 l/m 0,0 km/h (0 Bft) SO 135 9,8 C 10,9 C
21.10.2012 07:51 10,9 C 93 % 1019,6 hPa 0,0 l/m 0,0 km/h (0 Bft) SO 135 9,8 C 10,9 C
21.10.2012 07:56 10,8 C 93 % 1019,7 hPa 0,0 l/m 0,0 km/h (0 Bft) SO 135 9,7 C 10,8 C
21.10.2012 08:01 10,6 C 93 % 1019,7 hPa 0,0 l/m 1,1 km/h (1 Bft) O-SO 112 9,5 C 10,6 C
21.10.2012 08:06 10,6 C 93 % 1019,7 hPa 0,0 l/m 1,8 km/h (1 Bft) O-SO 112 9,5 C 10,6 C
21.10.2012 08:11 10,5 C 93 % 1019,7 hPa 0,0 l/m 0,0 km/h (0 Bft) SO 135 9,4 C 10,5 C
21.10.2012 08:16 10,6 C 93 % 1019,7 hPa 0,0 l/m 0,0 km/h (0 Bft) O-SO 112 9,5 C 10,6 C
21.10.2012 08:21 10,8 C 93 % 1019,8 hPa 0,0 l/m 1,8 km/h (1 Bft) O-SO 112 9,7 C 10,8 C
21.10.2012 08:26 10,9 C 93 % 1019,8 hPa 0,0 l/m 0,0 km/h (0 Bft) SO 135 9,8 C 10,9 C
21.10.2012 08:31 10,9 C 93 % 1019,9 hPa 0,0 l/m 0,0 km/h (0 Bft) O-SO 112 9,8 C 10,9 C
21.10.2012 08:36 11,0 C 93 % 1020,0 hPa 0,0 l/m 1,8 km/h (1 Bft) SO 135 9,9 C 11,0 C
21.10.2012 08:41 11,1 C 93 % 1020,2 hPa 0,0 l/m 1,8 km/h (1 Bft) O-SO 112 10,0 C 11,1 C
21.10.2012 08:46 11,2 C 93 % 1020,2 hPa 0,0 l/m 2,5 km/h (1 Bft) SO 135 10,1 C 11,2 C
21.10.2012 08:51 11,3 C 94 % 1020,1 hPa 0,0 l/m 4,3 km/h (1 Bft) SO 135 10,4 C 11,3 C
21.10.2012 08:56 11,4 C 94 % 1020,0 hPa 0,0 l/m 1,8 km/h (1 Bft) O-SO 112 10,5 C 11,4 C
21.10.2012 09:01 11,5 C 94 % 1020,2 hPa 0,0 l/m 0,0 km/h (0 Bft) O-SO 112 10,6 C 11,5 C
21.10.2012 09:06 11,6 C 94 % 1020,3 hPa 0,0 l/m 2,2 km/h (1 Bft) SO 135 10,7 C 11,6 C
21.10.2012 09:11 11,6 C 94 % 1020,4 hPa 0,0 l/m 0,0 km/h (0 Bft) O-SO 112 10,7 C 11,6 C
21.10.2012 09:16 11,8 C 94 % 1020,4 hPa 0,0 l/m 2,9 km/h (1 Bft) S-SO 157 10,9 C 11,8 C
21.10.2012 09:21 11,9 C 94 % 1020,4 hPa 0,0 l/m 2,9 km/h (1 Bft) S-SO 157 11,0 C 11,9 C
21.10.2012 09:26 11,9 C 94 % 1020,6 hPa 0,0 l/m 1,4 km/h (1 Bft) S-SO 157 11,0 C 11,9 C
21.10.2012 09:31 12,0 C 94 % 1020,6 hPa 0,0 l/m 5,0 km/h (1 Bft) SO 135 11,1 C 12,0 C
21.10.2012 09:36 12,1 C 94 % 1020,7 hPa 0,0 l/m 4,3 km/h (1 Bft) SO 135 11,2 C 12,1 C
21.10.2012 09:41 12,1 C 94 % 1020,7 hPa 0,0 l/m 7,2 km/h (2 Bft) SO 135 11,2 C 12,1 C
21.10.2012 09:46 12,1 C 94 % 1020,8 hPa 0,0 l/m 1,8 km/h (1 Bft) SO 135 11,2 C 12,1 C
21.10.2012 09:51 12,2 C 94 % 1020,9 hPa 0,0 l/m 2,5 km/h (1 Bft) SO 135 11,3 C 12,2 C
21.10.2012 09:56 12,3 C 94 % 1020,9 hPa 0,0 l/m 4,0 km/h (1 Bft) O-SO 112 11,4 C 12,3 C
21.10.2012 10:01 12,3 C 94 % 1020,8 hPa 0,0 l/m 6,1 km/h (2 Bft) O-SO 112 11,4 C 12,3 C
21.10.2012 10:06 12,4 C 94 % 1020,9 hPa 0,0 l/m 5,0 km/h (1 Bft) O-SO 112 11,5 C 12,4 C
21.10.2012 10:11 12,4 C 94 % 1020,7 hPa 0,0 l/m 3,2 km/h (1 Bft) O-SO 112 11,5 C 12,4 C
21.10.2012 10:16 12,5 C 94 % 1020,8 hPa 0,0 l/m 5,8 km/h (2 Bft) O-SO 112 11,6 C 12,5 C
21.10.2012 10:21 12,6 C 94 % 1020,9 hPa 0,0 l/m 1,8 km/h (1 Bft) O-SO 112 11,7 C 12,6 C
21.10.2012 10:26 12,8 C 94 % 1021,0 hPa 0,0 l/m 4,0 km/h (1 Bft) SO 135 11,9 C 12,8 C
21.10.2012 10:31 12,9 C 94 % 1021,0 hPa 0,0 l/m 1,1 km/h (1 Bft) SO 135 12,0 C 12,9 C
21.10.2012 10:36 13,0 C 94 % 1021,0 hPa 0,0 l/m 2,9 km/h (1 Bft) O-SO 112 12,1 C 13,0 C
21.10.2012 10:41 13,1 C 94 % 1020,9 hPa 0,0 l/m 0,0 km/h (0 Bft) SO 135 12,2 C 13,1 C
21.10.2012 10:46 13,2 C 94 % 1021,0 hPa 0,0 l/m 2,5 km/h (1 Bft) O-SO 112 12,3 C 13,2 C
21.10.2012 10:51 13,3 C 94 % 1021,0 hPa 0,0 l/m 3,2 km/h (1 Bft) SO 135 12,4 C 13,3 C
21.10.2012 10:56 13,4 C 94 % 1021,1 hPa 0,0 l/m 0,0 km/h (0 Bft) S-SO 157 12,5 C 13,4 C
21.10.2012 11:01 13,6 C 94 % 1020,9 hPa 0,0 l/m 0,0 km/h (0 Bft) SO 135 12,7 C 13,6 C
21.10.2012 11:06 13,8 C 94 % 1020,9 hPa 0,0 l/m 0,0 km/h (0 Bft) SO 135 12,9 C 13,8 C
21.10.2012 11:11 13,9 C 94 % 1020,8 hPa 0,0 l/m 2,5 km/h (1 Bft) O-SO 112 12,9 C 13,9 C
21.10.2012 11:16 13,9 C 94 % 1020,8 hPa 0,0 l/m 2,9 km/h (1 Bft) SO 135 12,9 C 13,9 C
21.10.2012 11:21 13,9 C 94 % 1020,8 hPa 0,0 l/m 3,2 km/h (1 Bft) SO 135 12,9 C 13,9 C
21.10.2012 11:26 14,1 C 94 % 1020,8 hPa 0,0 l/m 4,0 km/h (1 Bft) O-SO 112 13,1 C 14,1 C
21.10.2012 11:31 14,2 C 93 % 1020,8 hPa 0,0 l/m 2,9 km/h (1 Bft) SO 135 13,1 C 14,2 C
21.10.2012 11:36 14,4 C 93 % 1020,9 hPa 0,0 l/m 0,0 km/h (0 Bft) SO 135 13,3 C 14,4 C
21.10.2012 11:41 14,7 C 93 % 1020,9 hPa 0,0 l/m 4,7 km/h (1 Bft) O-NO 67 13,6 C 14,7 C
21.10.2012 11:46 14,9 C 93 % 1020,8 hPa 0,0 l/m 5,0 km/h (1 Bft) O-SO 112 13,8 C 14,9 C
21.10.2012 11:51 14,9 C 92 % 1020,8 hPa 0,0 l/m 2,2 km/h (1 Bft) O 90 13,6 C 14,9 C
21.10.2012 11:56 15,2 C 92 % 1020,8 hPa 0,0 l/m 5,8 km/h (2 Bft) SO 135 13,9 C 15,2 C
21.10.2012 12:01 15,4 C 91 % 1020,6 hPa 0,0 l/m 6,1 km/h (2 Bft) S-SO 157 13,9 C 15,4 C
21.10.2012 12:06 15,6 C 91 % 1020,6 hPa 0,0 l/m 4,7 km/h (1 Bft) O-NO 67 14,1 C 15,6 C
21.10.2012 12:11 15,8 C 90 % 1020,6 hPa 0,0 l/m 14,0 km/h (3 Bft) O-SO 112 14,2 C 15,8 C
21.10.2012 12:16 16,0 C 90 % 1020,6 hPa 0,0 l/m 4,3 km/h (1 Bft) SO 135 14,4 C 16,0 C
21.10.2012 12:21 16,1 C 89 % 1020,5 hPa 0,0 l/m 5,0 km/h (1 Bft) O-SO 112 14,3 C 16,1 C
21.10.2012 12:26 16,3 C 89 % 1020,7 hPa 0,0 l/m 3,2 km/h (1 Bft) SO 135 14,5 C 16,3 C
21.10.2012 12:31 16,4 C 88 % 1020,5 hPa 0,0 l/m 5,4 km/h (1 Bft) O-SO 112 14,4 C 16,4 C
21.10.2012 12:36 16,6 C 88 % 1020,5 hPa 0,0 l/m 2,9 km/h (1 Bft) O-SO 112 14,6 C 16,6 C
21.10.2012 12:41 16,8 C 87 % 1020,4 hPa 0,0 l/m 2,9 km/h (1 Bft) S 180 14,6 C 16,8 C
21.10.2012 12:46 16,9 C 87 % 1020,6 hPa 0,0 l/m 1,1 km/h (1 Bft) SO 135 14,7 C 16,9 C
21.10.2012 12:51 17,1 C 86 % 1020,5 hPa 0,0 l/m 5,4 km/h (1 Bft) SO 135 14,7 C 17,1 C
21.10.2012 12:56 17,2 C 86 % 1020,5 hPa 0,0 l/m 3,6 km/h (1 Bft) S-SO 157 14,8 C 17,2 C
21.10.2012 13:01 17,3 C 86 % 1020,5 hPa 0,0 l/m 4,0 km/h (1 Bft) SO 135 14,9 C 17,3 C
21.10.2012 13:06 17,4 C 84 % 1020,6 hPa 0,0 l/m 5,8 km/h (2 Bft) SO 135 14,7 C 17,4 C
21.10.2012 13:11 17,6 C 84 % 1020,5 hPa 0,0 l/m 2,9 km/h (1 Bft) S-SO 157 14,9 C 17,6 C
21.10.2012 13:16 17,7 C 84 % 1020,4 hPa 0,0 l/m 5,4 km/h (1 Bft) NO 45 15,0 C 17,7 C
21.10.2012 13:21 17,8 C 83 % 1020,4 hPa 0,0 l/m 4,0 km/h (1 Bft) O-SO 112 14,9 C 17,8 C
21.10.2012 13:26 17,9 C 83 % 1020,3 hPa 0,0 l/m 5,8 km/h (2 Bft) O-SO 112 15,0 C 17,9 C
21.10.2012 13:31 17,9 C 82 % 1020,4 hPa 0,0 l/m 5,4 km/h (1 Bft) O 90 14,8 C 17,9 C
21.10.2012 13:36 18,1 C 81 % 1020,4 hPa 0,0 l/m 4,7 km/h (1 Bft) O-NO 67 14,8 C 18,1 C
21.10.2012 13:41 18,1 C 81 % 1020,4 hPa 0,0 l/m 2,9 km/h (1 Bft) SO 135 14,8 C 18,1 C
21.10.2012 13:46 18,4 C 81 % 1020,4 hPa 0,0 l/m 4,0 km/h (1 Bft) SO 135 15,1 C 18,4 C
21.10.2012 13:51 18,4 C 80 % 1020,4 hPa 0,0 l/m 4,0 km/h (1 Bft) SO 135 14,9 C 18,4 C
21.10.2012 13:56 18,6 C 80 % 1020,4 hPa 0,0 l/m 2,5 km/h (1 Bft) O-SO 112 15,1 C 18,6 C
21.10.2012 14:01 18,8 C 79 % 1020,3 hPa 0,0 l/m 0,0 km/h (0 Bft) O-SO 112 15,1 C 18,8 C
21.10.2012 14:06 18,8 C 79 % 1020,3 hPa 0,0 l/m 2,9 km/h (1 Bft) S-SO 157 15,1 C 18,8 C
21.10.2012 14:11 19,0 C 78 % 1020,2 hPa 0,0 l/m 4,0 km/h (1 Bft) SO 135 15,1 C 19,0 C
21.10.2012 14:16 19,1 C 77 % 1020,2 hPa 0,0 l/m 2,2 km/h (1 Bft) O-SO 112 15,0 C 19,1 C
21.10.2012 14:21 19,1 C 77 % 1020,2 hPa 0,0 l/m 6,1 km/h (2 Bft) SO 135 15,0 C 19,1 C
21.10.2012 14:26 19,3 C 78 % 1020,2 hPa 0,0 l/m 2,2 km/h (1 Bft) S-SO 157 15,4 C 19,3 C
21.10.2012 14:31 19,4 C 77 % 1020,2 hPa 0,0 l/m 3,2 km/h (1 Bft) SO 135 15,3 C 19,4 C
21.10.2012 14:36 19,5 C 77 % 1020,1 hPa 0,0 l/m 0,0 km/h (0 Bft) O-SO 112 15,4 C 19,5 C
21.10.2012 14:41 19,6 C 76 % 1020,2 hPa 0,0 l/m 0,0 km/h (0 Bft) S-SO 157 15,2 C 19,6 C
21.10.2012 14:46 19,6 C 76 % 1020,1 hPa 0,0 l/m 1,4 km/h (1 Bft) SO 135 15,2 C 19,6 C
21.10.2012 14:51 19,7 C 75 % 1020,1 hPa 0,0 l/m 0,0 km/h (0 Bft) SO 135 15,1 C 19,7 C
21.10.2012 14:56 19,9 C 76 % 1020,1 hPa 0,0 l/m 2,9 km/h (1 Bft) SO 135 15,5 C 19,9 C
21.10.2012 15:01 19,9 C 74 % 1020,0 hPa 0,0 l/m 3,2 km/h (1 Bft) O-SO 112 15,1 C 19,9 C
21.10.2012 15:06 19,8 C 75 % 1020,0 hPa 0,0 l/m 3,6 km/h (1 Bft) O-SO 112 15,2 C 19,8 C
21.10.2012 15:11 19,8 C 75 % 1020,0 hPa 0,0 l/m 0,0 km/h (0 Bft) NO 45 15,2 C 19,8 C
21.10.2012 15:16 19,7 C 75 % 1020,0 hPa 0,0 l/m 3,2 km/h (1 Bft) O-SO 112 15,1 C 19,7 C
21.10.2012 15:21 19,8 C 75 % 1020,1 hPa 0,0 l/m 4,3 km/h (1 Bft) NO 45 15,2 C 19,8 C
21.10.2012 15:26 19,9 C 75 % 1020,1 hPa 0,0 l/m 3,2 km/h (1 Bft) NO 45 15,3 C 19,9 C
21.10.2012 15:31 19,9 C 75 % 1020,1 hPa 0,0 l/m 4,0 km/h (1 Bft) NO 45 15,3 C 19,9 C
21.10.2012 15:36 19,8 C 75 % 1020,1 hPa 0,0 l/m 0,0 km/h (0 Bft) NO 45 15,2 C 19,8 C
21.10.2012 15:41 19,8 C 75 % 1020,1 hPa 0,0 l/m 1,8 km/h (1 Bft) NO 45 15,2 C 19,8 C
21.10.2012 15:46 19,8 C 75 % 1020,1 hPa 0,0 l/m 7,2 km/h (2 Bft) O-SO 112 15,2 C 19,8 C
21.10.2012 15:51 19,7 C 75 % 1020,0 hPa 0,0 l/m 5,0 km/h (1 Bft) O-NO 67 15,1 C 19,7 C
21.10.2012 15:56 19,8 C 75 % 1020,0 hPa 0,0 l/m 5,0 km/h (1 Bft) O-NO 67 15,2 C 19,8 C
21.10.2012 16:01 19,6 C 75 % 1020,0 hPa 0,0 l/m 4,7 km/h (1 Bft) O-NO 67 15,0 C 19,6 C
21.10.2012 16:06 19,6 C 74 % 1020,0 hPa 0,0 l/m 5,8 km/h (2 Bft) O 90 14,8 C 19,6 C
21.10.2012 16:11 19,6 C 74 % 1020,0 hPa 0,0 l/m 5,0 km/h (1 Bft) O 90 14,8 C 19,6 C
21.10.2012 16:16 19,6 C 74 % 1020,0 hPa 0,0 l/m 2,2 km/h (1 Bft) O-SO 112 14,8 C 19,6 C
21.10.2012 16:21 19,5 C 74 % 1019,9 hPa 0,0 l/m 4,0 km/h (1 Bft) SO 135 14,7 C 19,5 C
21.10.2012 16:26 19,5 C 74 % 1020,0 hPa 0,0 l/m 5,4 km/h (1 Bft) SO 135 14,7 C 19,5 C
21.10.2012 16:31 19,5 C 75 % 1019,8 hPa 0,0 l/m 2,2 km/h (1 Bft) O-SO 112 14,9 C 19,5 C
21.10.2012 16:36 19,4 C 75 % 1019,9 hPa 0,0 l/m 1,4 km/h (1 Bft) O-SO 112 14,8 C 19,4 C
21.10.2012 16:41 19,4 C 75 % 1020,0 hPa 0,0 l/m 2,2 km/h (1 Bft) O-NO 67 14,8 C 19,4 C
21.10.2012 16:46 19,3 C 75 % 1020,0 hPa 0,0 l/m 7,2 km/h (2 Bft) O-SO 112 14,8 C 19,3 C
21.10.2012 16:51 19,3 C 76 % 1020,0 hPa 0,0 l/m 3,6 km/h (1 Bft) O-NO 67 15,0 C 19,3 C
21.10.2012 16:56 19,2 C 76 % 1020,0 hPa 0,0 l/m 1,1 km/h (1 Bft) NO 45 14,9 C 19,2 C
21.10.2012 17:01 19,1 C 77 % 1020,0 hPa 0,0 l/m 2,2 km/h (1 Bft) NO 45 15,0 C 19,1 C
21.10.2012 17:06 18,9 C 77 % 1020,1 hPa 0,0 l/m 0,0 km/h (0 Bft) NO 45 14,8 C 18,9 C
21.10.2012 17:11 18,8 C 78 % 1020,2 hPa 0,0 l/m 3,6 km/h (1 Bft) NO 45 14,9 C 18,8 C
21.10.2012 17:16 18,6 C 78 % 1020,2 hPa 0,0 l/m 3,6 km/h (1 Bft) O 90 14,7 C 18,6 C
21.10.2012 17:21 18,5 C 79 % 1020,0 hPa 0,0 l/m 0,0 km/h (0 Bft) O-NO 67 14,8 C 18,5 C
21.10.2012 17:26 18,3 C 79 % 1020,2 hPa 0,0 l/m 4,7 km/h (1 Bft) O-NO 67 14,6 C 18,3 C
21.10.2012 17:31 18,2 C 79 % 1020,4 hPa 0,0 l/m 3,2 km/h (1 Bft) O-NO 67 14,5 C 18,2 C
21.10.2012 17:36 17,9 C 80 % 1020,4 hPa 0,0 l/m 1,1 km/h (1 Bft) O-NO 67 14,4 C 17,9 C
21.10.2012 17:41 17,9 C 81 % 1020,3 hPa 0,0 l/m 0,0 km/h (0 Bft) O-NO 67 14,6 C 17,9 C
21.10.2012 17:46 17,8 C 81 % 1020,2 hPa 0,0 l/m 1,1 km/h (1 Bft) O-NO 67 14,5 C 17,8 C
21.10.2012 17:51 17,6 C 81 % 1020,3 hPa 0,0 l/m 1,8 km/h (1 Bft) O-NO 67 14,3 C 17,6 C
21.10.2012 17:56 17,4 C 81 % 1020,3 hPa 0,0 l/m 0,0 km/h (0 Bft) O-NO 67 14,1 C 17,4 C
21.10.2012 18:01 17,3 C 82 % 1020,4 hPa 0,0 l/m 2,2 km/h (1 Bft) O-NO 67 14,2 C 17,3 C
21.10.2012 18:06 17,1 C 82 % 1020,4 hPa 0,0 l/m 0,0 km/h (0 Bft) O-NO 67 14,0 C 17,1 C
21.10.2012 18:11 16,9 C 83 % 1020,5 hPa 0,0 l/m 1,4 km/h (1 Bft) O-NO 67 14,0 C 16,9 C
21.10.2012 18:16 16,8 C 83 % 1020,5 hPa 0,0 l/m 1,1 km/h (1 Bft) O-NO 67 13,9 C 16,8 C
21.10.2012 18:21 16,7 C 84 % 1020,6 hPa 0,0 l/m 0,0 km/h (0 Bft) O-NO 67 14,0 C 16,7 C
21.10.2012 18:26 16,5 C 84 % 1020,6 hPa 0,0 l/m 0,0 km/h (0 Bft) NO 45 13,8 C 16,5 C
21.10.2012 18:31 16,4 C 85 % 1020,7 hPa 0,0 l/m 2,5 km/h (1 Bft) O-NO 67 13,9 C 16,4 C
21.10.2012 18:36 16,3 C 85 % 1020,5 hPa 0,0 l/m 1,1 km/h (1 Bft) O-NO 67 13,8 C 16,3 C
21.10.2012 18:41 16,2 C 85 % 1020,7 hPa 0,0 l/m 0,0 km/h (0 Bft) NO 45 13,7 C 16,2 C
21.10.2012 18:46 16,1 C 86 % 1020,7 hPa 0,0 l/m 2,2 km/h (1 Bft) O-NO 67 13,8 C 16,1 C
21.10.2012 18:51 16,1 C 86 % 1020,8 hPa 0,0 l/m 1,1 km/h (1 Bft) O-NO 67 13,8 C 16,1 C
21.10.2012 18:56 15,9 C 86 % 1020,9 hPa 0,0 l/m 2,2 km/h (1 Bft) O-NO 67 13,6 C 15,9 C
21.10.2012 19:01 15,9 C 87 % 1020,9 hPa 0,0 l/m 2,2 km/h (1 Bft) O-NO 67 13,7 C 15,9 C
21.10.2012 19:06 15,8 C 87 % 1021,1 hPa 0,0 l/m 1,4 km/h (1 Bft) O 90 13,6 C 15,8 C
21.10.2012 19:11 15,8 C 87 % 1021,1 hPa 0,0 l/m 0,0 km/h (0 Bft) O 90 13,6 C 15,8 C
21.10.2012 19:16 15,6 C 87 % 1021,1 hPa 0,0 l/m 1,8 km/h (1 Bft) O-NO 67 13,4 C 15,6 C
21.10.2012 19:21 15,5 C 87 % 1021,1 hPa 0,0 l/m 4,0 km/h (1 Bft) O-NO 67 13,3 C 15,5 C
21.10.2012 19:26 15,4 C 87 % 1021,1 hPa 0,0 l/m 3,2 km/h (1 Bft) O-NO 67 13,2 C 15,4 C
21.10.2012 19:31 15,4 C 87 % 1021,3 hPa 0,0 l/m 1,4 km/h (1 Bft) NO 45 13,2 C 15,4 C
21.10.2012 19:36 15,3 C 88 % 1021,2 hPa 0,0 l/m 2,5 km/h (1 Bft) O-NO 67 13,3 C 15,3 C
21.10.2012 19:41 15,2 C 88 % 1021,1 hPa 0,0 l/m 1,4 km/h (1 Bft) O-SO 112 13,2 C 15,2 C
21.10.2012 19:46 15,0 C 88 % 1021,1 hPa 0,0 l/m 7,2 km/h (2 Bft) O-SO 112 13,0 C 15,0 C
21.10.2012 19:51 14,9 C 88 % 1021,1 hPa 0,0 l/m 6,1 km/h (2 Bft) O-SO 112 12,9 C 14,9 C
21.10.2012 19:56 14,9 C 88 % 1021,0 hPa 0,0 l/m 2,5 km/h (1 Bft) O 90 12,9 C 14,9 C
21.10.2012 20:01 14,9 C 89 % 1021,0 hPa 0,0 l/m 5,8 km/h (2 Bft) O-NO 67 13,1 C 14,9 C
21.10.2012 20:06 14,9 C 89 % 1021,0 hPa 0,0 l/m 5,8 km/h (2 Bft) O 90 13,1 C 14,9 C
21.10.2012 20:11 14,9 C 89 % 1021,1 hPa 0,0 l/m 4,0 km/h (1 Bft) O 90 13,1 C 14,9 C
21.10.2012 20:16 14,9 C 90 % 1021,1 hPa 0,0 l/m 0,0 km/h (0 Bft) O-NO 67 13,3 C 14,9 C
21.10.2012 20:21 14,9 C 89 % 1021,1 hPa 0,0 l/m 6,1 km/h (2 Bft) O-SO 112 13,1 C 14,9 C
21.10.2012 20:26 14,9 C 89 % 1021,2 hPa 0,0 l/m 6,1 km/h (2 Bft) O-NO 67 13,1 C 14,9 C
21.10.2012 20:31 14,9 C 89 % 1021,3 hPa 0,0 l/m 3,2 km/h (1 Bft) O-SO 112 13,1 C 14,9 C
21.10.2012 20:36 14,9 C 89 % 1021,3 hPa 0,0 l/m 4,0 km/h (1 Bft) O-NO 67 13,1 C 14,9 C
21.10.2012 20:41 14,8 C 89 % 1021,4 hPa 0,0 l/m 3,2 km/h (1 Bft) O 90 13,0 C 14,8 C
21.10.2012 20:46 14,7 C 89 % 1021,5 hPa 0,0 l/m 4,0 km/h (1 Bft) O-NO 67 12,9 C 14,7 C
21.10.2012 20:51 14,6 C 89 % 1021,5 hPa 0,0 l/m 4,3 km/h (1 Bft) O-SO 112 12,8 C 14,6 C
21.10.2012 20:56 14,6 C 89 % 1021,6 hPa 0,0 l/m 6,8 km/h (2 Bft) O 90 12,8 C 14,6 C
21.10.2012 21:01 14,5 C 89 % 1021,7 hPa 0,0 l/m 3,6 km/h (1 Bft) O-NO 67 12,7 C 14,5 C
21.10.2012 21:06 14,5 C 89 % 1021,8 hPa 0,0 l/m 0,0 km/h (0 Bft) O-NO 67 12,7 C 14,5 C
21.10.2012 21:11 14,4 C 89 % 1021,9 hPa 0,0 l/m 3,6 km/h (1 Bft) O 90 12,6 C 14,4 C
21.10.2012 21:16 14,4 C 89 % 1021,8 hPa 0,0 l/m 2,5 km/h (1 Bft) O-NO 67 12,6 C 14,4 C
21.10.2012 21:21 14,3 C 90 % 1021,8 hPa 0,0 l/m 1,4 km/h (1 Bft) O-NO 67 12,7 C 14,3 C
21.10.2012 21:26 14,2 C 90 % 1021,9 hPa 0,0 l/m 3,6 km/h (1 Bft) O-NO 67 12,6 C 14,2 C
21.10.2012 21:31 14,2 C 90 % 1021,9 hPa 0,0 l/m 6,1 km/h (2 Bft) O 90 12,6 C 14,2 C
21.10.2012 21:36 14,1 C 90 % 1021,9 hPa 0,0 l/m 4,0 km/h (1 Bft) O-NO 67 12,5 C 14,1 C
21.10.2012 21:41 14,2 C 90 % 1022,0 hPa 0,0 l/m 4,7 km/h (1 Bft) O-NO 67 12,6 C 14,2 C
21.10.2012 21:46 14,2 C 91 % 1022,1 hPa 0,0 l/m 6,1 km/h (2 Bft) O 90 12,8 C 14,2 C
21.10.2012 21:51 14,2 C 91 % 1022,1 hPa 0,0 l/m 9,4 km/h (2 Bft) SO 135 12,8 C 14,2 C
21.10.2012 21:56 14,2 C 91 % 1022,1 hPa 0,0 l/m 4,0 km/h (1 Bft) O-SO 112 12,8 C 14,2 C
21.10.2012 22:01 14,2 C 91 % 1022,2 hPa 0,0 l/m 2,9 km/h (1 Bft) O-NO 67 12,8 C 14,2 C
21.10.2012 22:06 14,2 C 91 % 1022,3 hPa 0,0 l/m 1,8 km/h (1 Bft) O-NO 67 12,8 C 14,2 C
21.10.2012 22:11 14,2 C 91 % 1022,3 hPa 0,0 l/m 4,7 km/h (1 Bft) O 90 12,8 C 14,2 C
21.10.2012 22:16 14,1 C 91 % 1022,4 hPa 0,0 l/m 8,6 km/h (2 Bft) O-NO 67 12,7 C 14,1 C
21.10.2012 22:21 14,1 C 91 % 1022,6 hPa 0,0 l/m 6,1 km/h (2 Bft) O-NO 67 12,7 C 14,1 C
21.10.2012 22:26 13,9 C 91 % 1022,6 hPa 0,0 l/m 3,6 km/h (1 Bft) O-NO 67 12,5 C 13,9 C
21.10.2012 22:31 13,9 C 91 % 1022,6 hPa 0,0 l/m 13,3 km/h (3 Bft) O-SO 112 12,5 C 13,9 C
21.10.2012 22:36 13,9 C 91 % 1022,6 hPa 0,0 l/m 5,0 km/h (1 Bft) O 90 12,5 C 13,9 C
21.10.2012 22:41 13,8 C 91 % 1022,7 hPa 0,0 l/m 3,6 km/h (1 Bft) O 90 12,4 C 13,8 C
21.10.2012 22:46 13,8 C 91 % 1022,7 hPa 0,0 l/m 2,9 km/h (1 Bft) SO 135 12,4 C 13,8 C
21.10.2012 22:51 13,9 C 92 % 1022,8 hPa 0,0 l/m 4,0 km/h (1 Bft) SO 135 12,6 C 13,9 C
21.10.2012 22:56 13,9 C 92 % 1022,8 hPa 0,0 l/m 4,3 km/h (1 Bft) O-SO 112 12,6 C 13,9 C
21.10.2012 23:01 13,9 C 92 % 1022,8 hPa 0,0 l/m 5,0 km/h (1 Bft) O-SO 112 12,6 C 13,9 C
21.10.2012 23:06 13,9 C 92 % 1022,7 hPa 0,0 l/m 10,8 km/h (2 Bft) O-SO 112 12,6 C 13,9 C
21.10.2012 23:11 13,9 C 92 % 1022,7 hPa 0,0 l/m 6,5 km/h (2 Bft) SO 135 12,6 C 13,9 C
21.10.2012 23:16 13,9 C 91 % 1022,6 hPa 0,0 l/m 14,4 km/h (3 Bft) O-NO 67 12,5 C 13,9 C
21.10.2012 23:21 13,9 C 91 % 1022,7 hPa 0,0 l/m 8,6 km/h (2 Bft) O 90 12,5 C 13,9 C
21.10.2012 23:26 13,9 C 91 % 1022,7 hPa 0,0 l/m 8,3 km/h (2 Bft) O 90 12,5 C 13,9 C
21.10.2012 23:31 13,8 C 91 % 1022,7 hPa 0,0 l/m 8,3 km/h (2 Bft) O-SO 112 12,4 C 13,8 C
21.10.2012 23:36 13,8 C 91 % 1022,8 hPa 0,0 l/m 13,3 km/h (3 Bft) O-SO 112 12,4 C 13,8 C
21.10.2012 23:41 13,7 C 91 % 1022,8 hPa 0,0 l/m 13,3 km/h (3 Bft) O-SO 112 12,3 C 13,7 C
21.10.2012 23:46 13,6 C 91 % 1022,8 hPa 0,0 l/m 10,1 km/h (2 Bft) O 90 12,2 C 13,6 C
21.10.2012 23:51 13,6 C 91 % 1022,8 hPa 0,0 l/m 12,6 km/h (3 Bft) O-NO 67 12,2 C 13,6 C
21.10.2012 23:56 13,6 C 91 % 1022,9 hPa 0,0 l/m 10,1 km/h (2 Bft) O-NO 67 12,2 C 13,6 C
_ Min-Zeit 03:31 15:01 00:01 - 00:01 - - 03:31 03:31
Minimum _ 10,5 C 74 % 1019,2 hPa - 0,0 km/h (0 Bft) - - 9,1 C 10,5 C
_ Max-Zeit 14:56 06:26 23:56 00:01 23:16 - - 14:56 14:56
Maximum _ 19,9 C 94 % 1022,9 hPa 0,0 l/m 14,4 km/h
O-NO (3 Bft)
- - 15,5 C 19,9 C
Durchschnitt _ 14,3 C 88 % 1020,5 hPa #0,0 l/m 2,9 km/h (1 Bft) O-SO - 12,3 C 14,3 C
(c) by David Heller